Time;durP1;ratioP1;P1;durP2;ratioP2;P2;SDS_P1;SDS_P2;PMS_P1;PMS_P2;Temp;Humidity;BMP_temperature;BMP_pressure;BME280_temperature;BME280_humidity;BME280_pressure;Samples;Min_cycle;Max_cycle;Signal;HPM_P1;HPM_P2
2023/06/06 00:00:54;;;;;;;;;;;;;;;;;;2193713;59;4909;-22
2023/06/06 00:03:25;;;;;;;;;;;;;;;;;;2192957;67;3083;-22
2023/06/06 00:05:55;;;;;;;;;;;;;;;;;;2194042;67;2428;-22
2023/06/06 00:08:28;;;;;;;;;;;;;;;;;;2193015;67;2608;-22
2023/06/06 00:10:58;;;;;;;;;;;;;;;;;;2193718;67;2042;-22
2023/06/06 00:13:28;;;;;;;;;;;;;;;;;;2192990;59;2649;-22
2023/06/06 00:15:58;;;;;;;;;;;;;;;;;;2193365;59;1867;-22
2023/06/06 00:18:29;;;;;;;;;;;;;;;;;;2193507;59;2701;-22
2023/06/06 00:20:59;;;;;;;;;;;;;;;;;;2193274;67;2922;-22
2023/06/06 00:23:29;;;;;;;;;;;;;;;;;;2193221;67;2586;-22
2023/06/06 00:25:59;;;;;;;;;;;;;;;;;;2197107;66;2776;-22
2023/06/06 00:28:29;;;;;;;;;;;;;;;;;;2194301;67;3050;-22
2023/06/06 00:31:00;;;;;;;;;;;;;;;;;;2192905;59;2695;-22
2023/06/06 00:33:30;;;;;;;;;;;;;;;;;;2193091;67;2033;-22
2023/06/06 00:36:03;;;;;;;;;;;;;;;;;;2192633;59;1923;-24
2023/06/06 00:38:33;;;;;;;;;;;;;;;;;;2192605;67;2635;-22
2023/06/06 00:41:04;;;;;;;;;;;;;;;;;;2196285;67;3117;-22
2023/06/06 00:43:34;;;;;;;;;;;;;;;;;;2192947;67;2586;-22
2023/06/06 00:46:04;;;;;;;;;;;;;;;;;;2193221;67;2714;-22
2023/06/06 00:48:34;;;;;;;;;;;;;;;;;;2192557;59;2683;-22
2023/06/06 00:51:06;;;;;;;;;;;;;;;;;;2191678;59;2780;-22
2023/06/06 00:53:36;;;;;;;;;;;;;;;;;;2192623;67;2721;-23
2023/06/06 00:56:07;;;;;;;;;;;;;;;;;;2193556;59;2499;-22
2023/06/06 00:58:37;;;;;;;;;;;;;;;;;;2193508;59;2321;-22
2023/06/06 01:01:10;;;;;;;;;;;;;;;;;;2192844;59;3186;-22
2023/06/06 01:03:40;;;;;;;;;;;;;;;;;;2193279;67;3022;-22
2023/06/06 01:06:12;;;;;;;;;;;;;;;;;;2193361;59;2692;-22
2023/06/06 01:08:42;;;;;;;;;;;;;;;;;;2193282;67;2998;-23
2023/06/06 01:11:16;;;;;;;;;;;;;;;;;;2192079;67;2616;-23
2023/06/06 01:14:04;;;;;;;;;;;;;;;;;;2192998;59;2008;-22
2023/06/06 01:16:36;;;;;;;;;;;;;;;;;;2192852;59;2602;-22
2023/06/06 01:19:11;;;;;;;;;;;;;;;;;;2193482;67;2723;-23
2023/06/06 01:21:41;;;;;;;;;;;;;;;;;;2193160;67;2186;-23
2023/06/06 01:24:12;;;;;;;;;;;;;;;;;;2192845;67;1933;-22
2023/06/06 01:26:42;;;;;;;;;;;;;;;;;;2193585;59;2821;-22
2023/06/06 01:29:13;;;;;;;;;;;;;;;;;;2192517;59;2558;-23
2023/06/06 01:31:58;;;;;;;;;;;;;;;;;;2193703;59;3077;-22
2023/06/06 01:34:38;;;;;;;;;;;;;;;;;;2192944;67;2468;-22
2023/06/06 01:37:33;;;;;;;;;;;;;;;;;;2192894;59;2692;-22
2023/06/06 01:40:05;;;;;;;;;;;;;;;;;;2193176;59;1841;-23
2023/06/06 01:42:38;;;;;;;;;;;;;;;;;;2192540;67;2640;-23
2023/06/06 01:45:09;;;;;;;;;;;;;;;;;;2192171;67;3060;-22
2023/06/06 01:47:40;;;;;;;;;;;;;;;;;;2192763;59;2918;-23
2023/06/06 01:50:11;;;;;;;;;;;;;;;;;;2192994;59;2772;-23
2023/06/06 01:52:41;;;;;;;;;;;;;;;;;;2192833;59;3070;-22
2023/06/06 01:55:11;;;;;;;;;;;;;;;;;;2193623;67;2346;-22
2023/06/06 01:57:41;;;;;;;;;;;;;;;;;;2193325;67;2589;-22
2023/06/06 02:00:12;;;;;;;;;;;;;;;;;;2195936;67;2745;-22
2023/06/06 02:02:43;;;;;;;;;;;;;;;;;;2194246;67;3311;-22
2023/06/06 02:05:14;;;;;;;;;;;;;;;;;;2192625;59;2580;-23
2023/06/06 02:07:44;;;;;;;;;;;;;;;;;;2193810;67;3272;-31
2023/06/06 02:10:15;;;;;;;;;;;;;;;;;;2192829;67;1967;-23
2023/06/06 02:12:45;;;;;;;;;;;;;;;;;;2192857;67;2507;-23
2023/06/06 02:15:16;;;;;;;;;;;;;;;;;;2193159;67;2601;-23
2023/06/06 02:17:48;;;;;;;;;;;;;;;;;;2193581;59;1968;-22
2023/06/06 02:20:19;;;;;;;;;;;;;;;;;;2191841;67;2202;-22
2023/06/06 02:22:49;;;;;;;;;;;;;;;;;;2193370;67;2655;-22
2023/06/06 02:25:23;;;;;;;;;;;;;;;;;;2192735;67;2828;-22
2023/06/06 02:27:55;;;;;;;;;;;;;;;;;;2194185;59;2508;-23
2023/06/06 02:30:26;;;;;;;;;;;;;;;;;;2195015;59;3002;-23
2023/06/06 02:32:57;;;;;;;;;;;;;;;;;;2198344;66;2903;-22
2023/06/06 02:35:27;;;;;;;;;;;;;;;;;;2193204;59;2487;-22
2023/06/06 02:37:57;;;;;;;;;;;;;;;;;;2191602;59;2272;-22
2023/06/06 02:40:28;;;;;;;;;;;;;;;;;;2192409;67;1957;-22
2023/06/06 02:42:59;;;;;;;;;;;;;;;;;;2192817;67;1833;-22
2023/06/06 02:45:30;;;;;;;;;;;;;;;;;;2192668;67;3392;-22
2023/06/06 02:48:00;;;;;;;;;;;;;;;;;;2192397;59;2165;-23
2023/06/06 02:50:31;;;;;;;;;;;;;;;;;;2192364;59;2623;-22
2023/06/06 02:53:02;;;;;;;;;;;;;;;;;;2191249;59;2495;-22
2023/06/06 02:55:35;;;;;;;;;;;;;;;;;;2193938;67;3361;-22
2023/06/06 02:58:23;;;;;;;;;;;;;;;;;;2195560;59;2235;-23
2023/06/06 03:00:56;;;;;;;;;;;;;;;;;;2193914;59;2130;-22
2023/06/06 03:03:27;;;;;;;;;;;;;;;;;;2195521;66;2935;-23
2023/06/06 03:05:58;;;;;;;;;;;;;;;;;;2193592;59;2118;-22
2023/06/06 03:08:29;;;;;;;;;;;;;;;;;;2193130;67;2470;-24
2023/06/06 03:11:02;;;;;;;;;;;;;;;;;;2192609;67;2821;-24
2023/06/06 03:13:32;;;;;;;;;;;;;;;;;;2192788;67;2927;-24
2023/06/06 03:16:03;;;;;;;;;;;;;;;;;;2193189;67;2490;-24
2023/06/06 03:18:36;;;;;;;;;;;;;;;;;;2189729;59;2097;-24
2023/06/06 03:21:06;;;;;;;;;;;;;;;;;;2196521;59;2632;-24
2023/06/06 03:23:36;;;;;;;;;;;;;;;;;;2193151;67;2661;-24
2023/06/06 03:26:07;;;;;;;;;;;;;;;;;;2193631;67;1645;-24
2023/06/06 03:28:37;;;;;;;;;;;;;;;;;;2192361;67;2773;-24
2023/06/06 03:31:08;;;;;;;;;;;;;;;;;;2193811;59;2951;-24
2023/06/06 03:33:39;;;;;;;;;;;;;;;;;;2193188;67;2026;-24
2023/06/06 03:36:10;;;;;;;;;;;;;;;;;;2193018;59;2705;-22
2023/06/06 03:38:40;;;;;;;;;;;;;;;;;;2192996;67;3590;-22
2023/06/06 03:41:10;;;;;;;;;;;;;;;;;;2192984;67;3104;-22
2023/06/06 03:43:42;;;;;;;;;;;;;;;;;;2194530;67;2533;-25
2023/06/06 03:46:12;;;;;;;;;;;;;;;;;;2192696;60;2815;-25
2023/06/06 03:48:42;;;;;;;;;;;;;;;;;;2191907;67;2851;-22
2023/06/06 03:51:12;;;;;;;;;;;;;;;;;;2192752;59;2248;-22
2023/06/06 03:53:43;;;;;;;;;;;;;;;;;;2190970;59;2496;-22
2023/06/06 03:56:13;;;;;;;;;;;;;;;;;;2193003;59;2485;-22
2023/06/06 03:58:43;;;;;;;;;;;;;;;;;;2193407;59;3067;-22
2023/06/06 04:01:14;;;;;;;;;;;;;;;;;;2194132;67;2697;-23
2023/06/06 04:03:44;;;;;;;;;;;;;;;;;;2196052;67;3069;-22
2023/06/06 04:06:15;;;;;;;;;;;;;;;;;;2194132;59;2678;-22
2023/06/06 04:08:45;;;;;;;;;;;;;;;;;;2195261;67;2523;-22
2023/06/06 04:11:16;;;;;;;;;;;;;;;;;;2192478;67;2793;-22
2023/06/06 04:13:46;;;;;;;;;;;;;;;;;;2192281;67;3047;-22
2023/06/06 04:16:16;;;;;;;;;;;;;;;;;;2193322;59;2028;-22
2023/06/06 04:18:47;;;;;;;;;;;;;;;;;;2193219;67;2414;-22
2023/06/06 04:21:17;;;;;;;;;;;;;;;;;;2192734;67;2302;-22
2023/06/06 04:23:47;;;;;;;;;;;;;;;;;;2193165;67;2941;-22
2023/06/06 04:26:31;;;;;;;;;;;;;;;;;;2192911;67;1926;-22
2023/06/06 04:29:02;;;;;;;;;;;;;;;;;;2193277;59;2091;-23
2023/06/06 04:31:33;;;;;;;;;;;;;;;;;;2194913;59;2124;-22
2023/06/06 04:34:09;;;;;;;;;;;;;;;;;;2195497;67;2782;-22
2023/06/06 04:36:40;;;;;;;;;;;;;;;;;;2193998;59;2657;-22
2023/06/06 04:39:12;;;;;;;;;;;;;;;;;;2193337;67;2710;-22
2023/06/06 04:41:43;;;;;;;;;;;;;;;;;;2192717;67;2915;-22
2023/06/06 04:44:13;;;;;;;;;;;;;;;;;;2192175;67;2694;-22
2023/06/06 04:46:44;;;;;;;;;;;;;;;;;;2192900;59;2874;-22
2023/06/06 04:49:15;;;;;;;;;;;;;;;;;;2194662;59;2075;-22
2023/06/06 04:51:45;;;;;;;;;;;;;;;;;;2193004;59;2859;-23
2023/06/06 04:54:16;;;;;;;;;;;;;;;;;;2190601;59;2388;-22
2023/06/06 04:56:47;;;;;;;;;;;;;;;;;;2192522;59;2944;-22
2023/06/06 04:59:22;;;;;;;;;;;;;;;;;;2192673;59;3339;-23
2023/06/06 05:01:52;;;;;;;;;;;;;;;;;;2192993;59;2531;-22
2023/06/06 05:04:23;;;;;;;;;;;;;;;;;;2193016;67;2170;-22
2023/06/06 05:06:56;;;;;;;;;;;;;;;;;;2194021;59;2939;-22
2023/06/06 05:09:27;;;;;;;;;;;;;;;;;;2192313;67;2761;-22
2023/06/06 05:12:00;;;;;;;;;;;;;;;;;;2192548;59;3039;-23
2023/06/06 05:14:30;;;;;;;;;;;;;;;;;;2192340;59;3018;-22
2023/06/06 05:17:00;;;;;;;;;;;;;;;;;;2193041;59;2314;-23
2023/06/06 05:19:31;;;;;;;;;;;;;;;;;;2192523;67;2116;-23
2023/06/06 05:22:01;;;;;;;;;;;;;;;;;;2194452;59;3099;-23
2023/06/06 05:24:31;;;;;;;;;;;;;;;;;;2192664;67;2679;-22
2023/06/06 05:27:02;;;;;;;;;;;;;;;;;;2193033;67;2524;-23
2023/06/06 05:29:32;;;;;;;;;;;;;;;;;;2195013;59;2544;-23
2023/06/06 05:32:02;;;;;;;;;;;;;;;;;;2192363;59;2726;-23
2023/06/06 05:34:33;;;;;;;;;;;;;;;;;;2192439;67;2644;-23
2023/06/06 05:37:03;;;;;;;;;;;;;;;;;;2192324;59;2529;-23
2023/06/06 05:39:33;;;;;;;;;;;;;;;;;;2192948;59;3054;-23
2023/06/06 05:42:05;;;;;;;;;;;;;;;;;;2192877;67;3811;-23
2023/06/06 05:44:35;;;;;;;;;;;;;;;;;;2191733;67;3404;-23
2023/06/06 05:47:05;;;;;;;;;;;;;;;;;;2193111;59;2571;-23
2023/06/06 05:49:39;;;;;;;;;;;;;;;;;;2191620;67;3069;-23
2023/06/06 05:52:09;;;;;;;;;;;;;;;;;;2193691;59;2965;-23
2023/06/06 05:54:39;;;;;;;;;;;;;;;;;;2192558;59;2607;-23
2023/06/06 05:57:22;;;;;;;;;;;;;;;;;;2193218;67;2495;-23
2023/06/06 05:59:52;;;;;;;;;;;;;;;;;;2195534;59;2520;-23
2023/06/06 06:02:23;;;;;;;;;;;;;;;;;;2193714;59;2760;-23
2023/06/06 06:04:53;;;;;;;;;;;;;;;;;;2192807;59;2851;-23
2023/06/06 06:07:23;;;;;;;;;;;;;;;;;;2191194;59;2064;-23
2023/06/06 06:09:53;;;;;;;;;;;;;;;;;;2193219;59;2299;-23
2023/06/06 06:12:24;;;;;;;;;;;;;;;;;;2192339;59;3195;-23
2023/06/06 06:14:54;;;;;;;;;;;;;;;;;;2192549;59;2587;-23
2023/06/06 06:17:26;;;;;;;;;;;;;;;;;;2192251;67;3188;-23
2023/06/06 06:19:56;;;;;;;;;;;;;;;;;;2192775;67;3321;-23
2023/06/06 06:22:26;;;;;;;;;;;;;;;;;;2192118;67;2286;-23
2023/06/06 06:24:58;;;;;;;;;;;;;;;;;;2193712;67;2499;-23
2023/06/06 06:27:28;;;;;;;;;;;;;;;;;;2209101;66;2212;-23
2023/06/06 06:30:01;;;;;;;;;;;;;;;;;;2194526;67;3323;-23
2023/06/06 06:32:33;;;;;;;;;;;;;;;;;;2191986;59;1953;-23
2023/06/06 06:35:04;;;;;;;;;;;;;;;;;;2195074;59;3180;-23
2023/06/06 06:37:37;;;;;;;;;;;;;;;;;;2192165;59;2649;-23
2023/06/06 06:40:09;;;;;;;;;;;;;;;;;;2208986;59;2967;-23
2023/06/06 06:42:41;;;;;;;;;;;;;;;;;;2192554;60;3120;-23
2023/06/06 06:45:13;;;;;;;;;;;;;;;;;;2192768;67;1824;-24
2023/06/06 06:47:43;;;;;;;;;;;;;;;;;;2192798;59;2323;-23
2023/06/06 06:50:14;;;;;;;;;;;;;;;;;;2192400;59;1924;-23
2023/06/06 06:52:44;;;;;;;;;;;;;;;;;;2192845;67;2140;-23
2023/06/06 06:55:14;;;;;;;;;;;;;;;;;;2192793;59;2631;-23
2023/06/06 06:57:44;;;;;;;;;;;;;;;;;;2193253;59;3271;-23
2023/06/06 07:00:18;;;;;;;;;;;;;;;;;;2193427;59;2091;-24
2023/06/06 07:02:53;;;;;;;;;;;;;;;;;;2194206;67;2407;-23
2023/06/06 07:05:24;;;;;;;;;;;;;;;;;;2192517;59;2925;-24
2023/06/06 07:07:54;;;;;;;;;;;;;;;;;;2193025;59;2243;-23
2023/06/06 07:10:26;;;;;;;;;;;;;;;;;;2193922;67;2770;-24
2023/06/06 07:12:56;;;;;;;;;;;;;;;;;;2193057;67;2335;-24
2023/06/06 07:15:27;;;;;;;;;;;;;;;;;;2193400;67;1938;-24
2023/06/06 07:17:57;;;;;;;;;;;;;;;;;;2193456;67;2705;-24
2023/06/06 07:20:27;;;;;;;;;;;;;;;;;;2193591;59;3642;-24
2023/06/06 07:22:57;;;;;;;;;;;;;;;;;;2190767;59;3233;-24
2023/06/06 07:25:28;;;;;;;;;;;;;;;;;;2193956;59;2247;-24
2023/06/06 07:27:59;;;;;;;;;;;;;;;;;;2194038;67;3863;-24
2023/06/06 07:30:29;;;;;;;;;;;;;;;;;;2193399;59;3203;-24
2023/06/06 07:32:59;;;;;;;;;;;;;;;;;;2202185;54;3623;-20
2023/06/06 07:35:32;;;;;;;;;;;;;;;;;;2203430;59;1914;-20
2023/06/06 07:38:02;;;;;;;;;;;;;;;;;;2197307;59;2029;-20
2023/06/06 07:40:32;;;;;;;;;;;;;;;;;;2198916;67;2166;-20
2023/06/06 07:43:03;;;;;;;;;;;;;;;;;;2197075;67;2287;-20
2023/06/06 07:45:33;;;;;;;;;;;;;;;;;;2195200;67;3030;-20
2023/06/06 07:48:03;;;;;;;;;;;;;;;;;;2196224;59;3015;-20
2023/06/06 07:50:34;;;;;;;;;;;;;;;;;;2195730;59;2401;-20
2023/06/06 07:53:05;;;;;;;;;;;;;;;;;;2196730;59;3298;-20
2023/06/06 07:55:36;;;;;;;;;;;;;;;;;;2196037;59;3106;-20
2023/06/06 07:58:13;;;;;;;;;;;;;;;;;;2195317;59;3034;-20
2023/06/06 08:00:44;;;;;;;;;;;;;;;;;;2195667;59;3335;-20
2023/06/06 08:03:15;;;;;;;;;;;;;;;;;;2195645;67;3194;-20
2023/06/06 08:05:45;;;;;;;;;;;;;;;;;;2195779;59;2634;-20
2023/06/06 08:08:15;;;;;;;;;;;;;;;;;;2196153;59;1812;-20
2023/06/06 08:10:46;;;;;;;;;;;;;;;;;;2195730;67;2559;-20
2023/06/06 08:13:16;;;;;;;;;;;;;;;;;;2193771;59;2288;-20
2023/06/06 08:15:46;;;;;;;;;;;;;;;;;;2194692;59;2662;-20
2023/06/06 08:18:16;;;;;;;;;;;;;;;;;;2196117;59;2652;-20
2023/06/06 08:20:47;;;;;;;;;;;;;;;;;;2195433;59;3333;-20
2023/06/06 08:23:17;;;;;;;;;;;;;;;;;;2194217;67;2949;-20
2023/06/06 08:25:47;;;;;;;;;;;;;;;;;;2194567;67;2904;-20
2023/06/06 08:28:17;;;;;;;;;;;;;;;;;;2199389;67;2100;-20
2023/06/06 08:30:48;;;;;;;;;;;;;;;;;;2195547;59;3169;-20
2023/06/06 08:33:19;;;;;;;;;;;;;;;;;;2194622;67;2126;-21
2023/06/06 08:35:49;;;;;;;;;;;;;;;;;;2195182;59;2291;-21
2023/06/06 08:38:19;;;;;;;;;;;;;;;;;;2194295;59;2721;-20
2023/06/06 08:40:52;;;;;;;;;;;;;;;;;;2195123;67;3648;-20
2023/06/06 08:43:26;;;;;;;;;;;;;;;;;;2195857;67;3519;-21
2023/06/06 08:45:58;;;;;;;;;;;;;;;;;;2195211;59;2076;-21
2023/06/06 08:48:28;;;;;;;;;;;;;;;;;;2193462;59;3374;-21
2023/06/06 08:51:00;;;;;;;;;;;;;;;;;;2193875;59;3061;-21
2023/06/06 08:53:31;;;;;;;;;;;;;;;;;;2195935;67;3297;-20
2023/06/06 08:56:01;;;;;;;;;;;;;;;;;;2195590;59;2926;-21
2023/06/06 08:58:32;;;;;;;;;;;;;;;;;;2195223;59;2289;-20
2023/06/06 09:01:04;;;;;;;;;;;;;;;;;;2194664;59;2662;-20
2023/06/06 09:03:38;;;;;;;;;;;;;;;;;;2194117;59;2032;-20
2023/06/06 09:06:09;;;;;;;;;;;;;;;;;;2195994;67;2592;-21
2023/06/06 09:08:40;;;;;;;;;;;;;;;;;;2195082;59;2732;-20
2023/06/06 09:11:10;;;;;;;;;;;;;;;;;;2194630;67;2830;-20
2023/06/06 09:13:41;;;;;;;;;;;;;;;;;;2194480;59;2561;-20
2023/06/06 09:16:13;;;;;;;;;;;;;;;;;;2197801;67;2008;-21
2023/06/06 09:18:43;;;;;;;;;;;;;;;;;;2195522;67;2655;-21
2023/06/06 09:21:13;;;;;;;;;;;;;;;;;;2194238;59;2611;-21
2023/06/06 09:23:46;;;;;;;;;;;;;;;;;;2194873;67;2946;-20
2023/06/06 09:26:18;;;;;;;;;;;;;;;;;;2194799;59;2162;-21
2023/06/06 09:28:48;;;;;;;;;;;;;;;;;;2195814;67;2249;-20
2023/06/06 09:31:23;;;;;;;;;;;;;;;;;;2194991;67;2030;-21
2023/06/06 09:33:54;;;;;;;;;;;;;;;;;;2195733;59;3215;-20
2023/06/06 09:36:27;;;;;;;;;;;;;;;;;;2195476;67;2647;-20
2023/06/06 09:39:13;;;;;;;;;;;;;;;;;;2195667;59;3143;-21
2023/06/06 09:41:45;;;;;;;;;;;;;;;;;;2195619;67;3449;-20
2023/06/06 09:44:20;;;;;;;;;;;;;;;;;;2194902;67;2869;-21
2023/06/06 09:47:00;;;;;;;;;;;;;;;;;;2195757;59;3407;-21
2023/06/06 09:49:34;;;;;;;;;;;;;;;;;;2194083;59;2997;-21
2023/06/06 09:52:05;;;;;;;;;;;;;;;;;;2195119;60;3158;-21
2023/06/06 09:54:35;;;;;;;;;;;;;;;;;;2194683;59;2263;-21
2023/06/06 09:57:10;;;;;;;;;;;;;;;;;;2196447;59;2798;-21
2023/06/06 09:59:43;;;;;;;;;;;;;;;;;;2193826;59;3354;-21
2023/06/06 10:02:18;;;;;;;;;;;;;;;;;;2194108;59;2077;-21
2023/06/06 10:04:48;;;;;;;;;;;;;;;;;;2194758;67;2038;-21
2023/06/06 10:07:19;;;;;;;;;;;;;;;;;;2194858;59;2005;-21
2023/06/06 10:09:50;;;;;;;;;;;;;;;;;;2210060;66;3178;-21
2023/06/06 10:12:21;;;;;;;;;;;;;;;;;;2198372;59;3094;-21
2023/06/06 10:14:52;;;;;;;;;;;;;;;;;;2195139;59;2788;-20
2023/06/06 10:17:23;;;;;;;;;;;;;;;;;;2195353;59;2848;-21
2023/06/06 10:19:55;;;;;;;;;;;;;;;;;;2195408;59;2888;-21
2023/06/06 10:22:25;;;;;;;;;;;;;;;;;;2195185;59;2756;-21
2023/06/06 10:24:57;;;;;;;;;;;;;;;;;;2195632;59;1957;-21
2023/06/06 10:27:30;;;;;;;;;;;;;;;;;;2195685;67;2353;-21
2023/06/06 10:30:06;;;;;;;;;;;;;;;;;;2194826;59;2799;-21
2023/06/06 10:32:48;;;;;;;;;;;;;;;;;;2195268;59;2190;-21
2023/06/06 10:35:19;;;;;;;;;;;;;;;;;;2197051;59;3032;-21
2023/06/06 10:38:06;;;;;;;;;;;;;;;;;;2194433;59;2215;-21
2023/06/06 10:40:41;;;;;;;;;;;;;;;;;;2194011;60;2354;-21
2023/06/06 10:43:11;;;;;;;;;;;;;;;;;;2194730;67;2882;-24
2023/06/06 10:45:42;;;;;;;;;;;;;;;;;;2194671;59;2859;-21
2023/06/06 10:48:13;;;;;;;;;;;;;;;;;;2194369;67;2451;-21
2023/06/06 10:50:53;;;;;;;;;;;;;;;;;;2195122;59;3426;-21
2023/06/06 10:53:24;;;;;;;;;;;;;;;;;;2195138;67;4088;-21
2023/06/06 10:55:54;;;;;;;;;;;;;;;;;;2194393;59;3023;-21
2023/06/06 10:58:28;;;;;;;;;;;;;;;;;;2194528;59;2158;-21
2023/06/06 11:00:58;;;;;;;;;;;;;;;;;;2195105;67;2118;-21
2023/06/06 11:03:41;;;;;;;;;;;;;;;;;;2194551;60;2770;-21
2023/06/06 11:06:16;;;;;;;;;;;;;;;;;;2194306;59;1724;-21
2023/06/06 11:08:57;;;;;;;;;;;;;;;;;;2195326;67;2981;-21
2023/06/06 11:11:29;;;;;;;;;;;;;;;;;;2195357;59;2313;-21
2023/06/06 11:13:59;;;;;;;;;;;;;;;;;;2194314;59;3168;-21
2023/06/06 11:16:43;;;;;;;;;;;;;;;;;;2194389;67;2722;-21
2023/06/06 11:19:15;;;;;;;;;;;;;;;;;;2193896;59;2900;-21
2023/06/06 11:21:47;;;;;;;;;;;;;;;;;;2194467;59;2069;-21
2023/06/06 11:24:20;;;;;;;;;;;;;;;;;;2195012;59;2601;-21
2023/06/06 11:26:57;;;;;;;;;;;;;;;;;;2195257;67;2688;-21
2023/06/06 11:29:27;;;;;;;;;;;;;;;;;;2196070;67;2206;-21
2023/06/06 11:31:58;;;;;;;;;;;;;;;;;;2197232;59;3357;-21
2023/06/06 11:34:32;;;;;;;;;;;;;;;;;;2195328;67;2170;-21
2023/06/06 11:37:02;;;;;;;;;;;;;;;;;;2194627;59;3179;-21
2023/06/06 11:39:33;;;;;;;;;;;;;;;;;;2195275;59;2752;-21
2023/06/06 11:42:03;;;;;;;;;;;;;;;;;;2195012;60;1960;-21
2023/06/06 11:44:35;;;;;;;;;;;;;;;;;;2190886;67;2060;-20
2023/06/06 11:47:08;;;;;;;;;;;;;;;;;;2195252;59;3058;-21
2023/06/06 11:49:43;;;;;;;;;;;;;;;;;;2195079;59;1930;-21
2023/06/06 11:52:13;;;;;;;;;;;;;;;;;;2192610;59;2653;-21
2023/06/06 11:54:51;;;;;;;;;;;;;;;;;;2195847;59;2035;-20
2023/06/06 11:57:22;;;;;;;;;;;;;;;;;;2192991;59;2172;-20
2023/06/06 11:59:54;;;;;;;;;;;;;;;;;;2193791;59;2311;-20
2023/06/06 12:02:24;;;;;;;;;;;;;;;;;;2195049;59;2216;-20
2023/06/06 12:04:54;;;;;;;;;;;;;;;;;;2192373;59;2768;-21
2023/06/06 12:07:25;;;;;;;;;;;;;;;;;;2193380;59;2178;-21
2023/06/06 12:09:59;;;;;;;;;;;;;;;;;;2193370;59;2739;-20
2023/06/06 12:12:29;;;;;;;;;;;;;;;;;;2193192;59;2633;-20
2023/06/06 12:14:59;;;;;;;;;;;;;;;;;;2192098;59;2764;-20
2023/06/06 12:17:30;;;;;;;;;;;;;;;;;;2194551;67;2960;-20
2023/06/06 12:20:00;;;;;;;;;;;;;;;;;;2193477;59;2993;-20
2023/06/06 12:22:35;;;;;;;;;;;;;;;;;;2194313;59;2974;-20
2023/06/06 12:25:05;;;;;;;;;;;;;;;;;;2195126;59;2821;-20
2023/06/06 12:27:36;;;;;;;;;;;;;;;;;;2194378;67;3080;-20
2023/06/06 12:30:08;;;;;;;;;;;;;;;;;;2195848;67;2352;-20
2023/06/06 12:32:39;;;;;;;;;;;;;;;;;;2194969;59;3905;-20
2023/06/06 12:35:19;;;;;;;;;;;;;;;;;;2194468;59;3032;-20
2023/06/06 12:37:50;;;;;;;;;;;;;;;;;;2195785;59;2105;-20
2023/06/06 12:40:23;;;;;;;;;;;;;;;;;;2194807;67;2006;-20
2023/06/06 12:42:54;;;;;;;;;;;;;;;;;;2195688;67;2163;-20
2023/06/06 12:45:25;;;;;;;;;;;;;;;;;;2195970;67;2139;-20
2023/06/06 12:47:56;;;;;;;;;;;;;;;;;;2195300;59;3160;-20
2023/06/06 12:50:26;;;;;;;;;;;;;;;;;;2194926;59;3114;-20
2023/06/06 12:52:57;;;;;;;;;;;;;;;;;;2195153;59;2171;-20
2023/06/06 12:55:27;;;;;;;;;;;;;;;;;;2195062;59;2689;-20
2023/06/06 12:57:57;;;;;;;;;;;;;;;;;;2194587;59;2319;-20
2023/06/06 13:00:27;;;;;;;;;;;;;;;;;;2194542;67;2697;-20
2023/06/06 13:02:58;;;;;;;;;;;;;;;;;;2194567;59;2310;-20
2023/06/06 13:05:28;;;;;;;;;;;;;;;;;;2193538;59;2772;-20
2023/06/06 13:07:58;;;;;;;;;;;;;;;;;;2192423;67;3556;-20
2023/06/06 13:10:28;;;;;;;;;;;;;;;;;;2195128;59;3240;-20
2023/06/06 13:12:59;;;;;;;;;;;;;;;;;;2195727;59;3269;-20
2023/06/06 13:15:32;;;;;;;;;;;;;;;;;;2196097;59;2205;-20
2023/06/06 13:18:02;;;;;;;;;;;;;;;;;;2195016;59;2556;-20
2023/06/06 13:20:33;;;;;;;;;;;;;;;;;;2194157;59;3495;-20
2023/06/06 13:23:03;;;;;;;;;;;;;;;;;;2194450;59;3082;-20
2023/06/06 13:25:33;;;;;;;;;;;;;;;;;;2194946;59;2087;-20
2023/06/06 13:28:03;;;;;;;;;;;;;;;;;;2195321;59;2241;-20
2023/06/06 13:30:34;;;;;;;;;;;;;;;;;;2195656;59;2936;-20
2023/06/06 13:35:36;;;;;;;;;;;;;;;;;;2200536;59;2705;-23
2023/06/06 13:38:06;;;;;;;;;;;;;;;;;;2202268;59;2676;-23
2023/06/06 13:40:37;;;;;;;;;;;;;;;;;;2203367;66;2967;-23
2023/06/06 13:43:09;;;;;;;;;;;;;;;;;;2200711;58;2882;-23
2023/06/06 13:45:40;;;;;;;;;;;;;;;;;;2202056;59;2182;-23
2023/06/06 13:48:10;;;;;;;;;;;;;;;;;;2202171;59;3262;-23
2023/06/06 13:50:41;;;;;;;;;;;;;;;;;;2199290;59;2477;-23
2023/06/06 13:53:14;;;;;;;;;;;;;;;;;;2201586;59;2753;-23
2023/06/06 13:55:44;;;;;;;;;;;;;;;;;;2199769;59;2802;-23
2023/06/06 13:58:21;;;;;;;;;;;;;;;;;;2200977;59;3273;-23
2023/06/06 14:00:54;;;;;;;;;;;;;;;;;;2197903;58;3391;-23
2023/06/06 14:03:25;;;;;;;;;;;;;;;;;;2200270;59;3040;-23
2023/06/06 14:05:55;;;;;;;;;;;;;;;;;;2203227;59;2793;-23
2023/06/06 14:08:25;;;;;;;;;;;;;;;;;;2200825;58;2667;-23
2023/06/06 14:10:56;;;;;;;;;;;;;;;;;;2203330;59;2957;-23
2023/06/06 14:13:27;;;;;;;;;;;;;;;;;;2203550;59;2869;-23
2023/06/06 14:15:57;;;;;;;;;;;;;;;;;;2204478;59;2749;-23
2023/06/06 14:18:27;;;;;;;;;;;;;;;;;;2203149;59;2819;-23
2023/06/06 14:23:51;;;;;;;;;;;;;;;;;;2203545;66;3020;-23
2023/06/06 14:26:21;;;;;;;;;;;;;;;;;;2201259;59;2403;-23
2023/06/06 14:28:51;;;;;;;;;;;;;;;;;;2203537;59;2693;-23
2023/06/06 14:31:22;;;;;;;;;;;;;;;;;;2202828;59;2717;-23
2023/06/06 14:33:53;;;;;;;;;;;;;;;;;;2202800;59;3178;-23
2023/06/06 14:36:26;;;;;;;;;;;;;;;;;;2201214;58;3062;-23
2023/06/06 14:38:56;;;;;;;;;;;;;;;;;;2202052;59;3291;-23
2023/06/06 14:41:26;;;;;;;;;;;;;;;;;;2202791;66;2563;-23
2023/06/06 14:43:56;;;;;;;;;;;;;;;;;;2202519;59;2752;-23
2023/06/06 14:46:28;;;;;;;;;;;;;;;;;;2198470;58;2710;-23
2023/06/06 14:48:58;;;;;;;;;;;;;;;;;;2202465;59;2871;-23
2023/06/06 14:51:31;;;;;;;;;;;;;;;;;;2201947;59;2695;-23
2023/06/06 14:54:02;;;;;;;;;;;;;;;;;;2199897;59;2794;-23
2023/06/06 14:56:33;;;;;;;;;;;;;;;;;;2203491;66;2740;-23
2023/06/06 14:59:03;;;;;;;;;;;;;;;;;;2201938;66;2777;-23
2023/06/06 15:01:34;;;;;;;;;;;;;;;;;;2203054;59;3079;-23
2023/06/06 15:04:05;;;;;;;;;;;;;;;;;;2203725;59;2648;-23
2023/06/06 15:06:35;;;;;;;;;;;;;;;;;;2203824;59;2731;-23
2023/06/06 15:09:06;;;;;;;;;;;;;;;;;;2204009;59;2879;-23
2023/06/06 15:11:36;;;;;;;;;;;;;;;;;;2201881;59;2557;-23
2023/06/06 15:14:06;;;;;;;;;;;;;;;;;;2204022;66;3157;-23
2023/06/06 15:16:36;;;;;;;;;;;;;;;;;;2203477;58;2721;-23
2023/06/06 15:19:06;;;;;;;;;;;;;;;;;;2203591;66;2653;-23
2023/06/06 15:21:43;;;;;;;;;;;;;;;;;;2204023;66;2952;-23
2023/06/06 15:24:20;;;;;;;;;;;;;;;;;;2202742;66;2864;-23
2023/06/06 15:26:56;;;;;;;;;;;;;;;;;;2201078;59;2954;-23
2023/06/06 15:29:27;;;;;;;;;;;;;;;;;;2204165;66;2778;-23
2023/06/06 15:31:58;;;;;;;;;;;;;;;;;;2200083;58;2855;-23
2023/06/06 15:34:31;;;;;;;;;;;;;;;;;;2199747;59;2609;-23
2023/06/06 15:37:01;;;;;;;;;;;;;;;;;;2203165;59;2758;-23
2023/06/06 15:39:32;;;;;;;;;;;;;;;;;;2202911;66;2330;-23
2023/06/06 15:42:02;;;;;;;;;;;;;;;;;;2202648;58;2777;-23
2023/06/06 15:44:32;;;;;;;;;;;;;;;;;;2203105;59;2895;-23
2023/06/06 15:47:03;;;;;;;;;;;;;;;;;;2203384;59;3214;-23
2023/06/06 15:49:33;;;;;;;;;;;;;;;;;;2202914;59;3487;-23
2023/06/06 15:52:04;;;;;;;;;;;;;;;;;;2203827;59;3179;-23
2023/06/06 15:54:34;;;;;;;;;;;;;;;;;;2203845;59;3137;-23
2023/06/06 15:57:05;;;;;;;;;;;;;;;;;;2200891;66;2650;-23
2023/06/06 15:59:36;;;;;;;;;;;;;;;;;;2203755;59;2689;-23
2023/06/06 16:02:07;;;;;;;;;;;;;;;;;;2203111;59;2873;-23
2023/06/06 16:04:39;;;;;;;;;;;;;;;;;;2203826;66;2745;-23
2023/06/06 16:07:10;;;;;;;;;;;;;;;;;;2204093;66;3107;-23
2023/06/06 16:09:40;;;;;;;;;;;;;;;;;;2205229;59;3152;-23
2023/06/06 16:12:10;;;;;;;;;;;;;;;;;;2201040;66;2927;-23
2023/06/06 16:14:41;;;;;;;;;;;;;;;;;;2203449;66;3362;-23
2023/06/06 16:17:12;;;;;;;;;;;;;;;;;;2203488;59;2717;-23
2023/06/06 16:19:43;;;;;;;;;;;;;;;;;;2203250;66;3188;-23
2023/06/06 16:22:13;;;;;;;;;;;;;;;;;;2203656;66;2648;-23
2023/06/06 16:24:43;;;;;;;;;;;;;;;;;;2204131;66;2754;-23
2023/06/06 16:27:14;;;;;;;;;;;;;;;;;;2203322;66;3130;-23
2023/06/06 16:29:47;;;;;;;;;;;;;;;;;;2205196;66;2925;-23
2023/06/06 16:32:17;;;;;;;;;;;;;;;;;;2205267;59;2866;-23
2023/06/06 16:34:51;;;;;;;;;;;;;;;;;;2204130;59;2548;-23
2023/06/06 16:37:21;;;;;;;;;;;;;;;;;;2203714;59;2850;-23
2023/06/06 16:39:51;;;;;;;;;;;;;;;;;;2204577;59;2854;-22
2023/06/06 16:42:21;;;;;;;;;;;;;;;;;;2203059;66;2797;-23
2023/06/06 16:44:53;;;;;;;;;;;;;;;;;;2202228;66;3281;-23
2023/06/06 16:47:23;;;;;;;;;;;;;;;;;;2204099;59;3023;-23
2023/06/06 16:49:54;;;;;;;;;;;;;;;;;;2204145;59;2611;-23
2023/06/06 16:52:24;;;;;;;;;;;;;;;;;;2204102;59;3091;-22
2023/06/06 16:54:54;;;;;;;;;;;;;;;;;;2203958;59;3193;-23
2023/06/06 16:57:25;;;;;;;;;;;;;;;;;;2204056;66;2801;-22
2023/06/06 16:59:55;;;;;;;;;;;;;;;;;;2203863;66;2482;-22
2023/06/06 17:02:26;;;;;;;;;;;;;;;;;;2202034;59;3407;-23
2023/06/06 17:04:56;;;;;;;;;;;;;;;;;;2205872;66;2807;-23
2023/06/06 17:07:27;;;;;;;;;;;;;;;;;;2203583;66;2551;-23
2023/06/06 17:09:58;;;;;;;;;;;;;;;;;;2203586;66;2850;-23
2023/06/06 17:12:28;;;;;;;;;;;;;;;;;;2203236;66;3082;-23
2023/06/06 17:14:58;;;;;;;;;;;;;;;;;;2204307;66;2913;-23
2023/06/06 17:17:28;;;;;;;;;;;;;;;;;;2203568;59;3260;-23
2023/06/06 17:19:58;;;;;;;;;;;;;;;;;;2203500;66;2991;-23
2023/06/06 17:22:29;;;;;;;;;;;;;;;;;;2204373;66;3075;-23
2023/06/06 17:25:02;;;;;;;;;;;;;;;;;;2204418;66;2875;-23
2023/06/06 17:27:33;;;;;;;;;;;;;;;;;;2204336;66;2586;-23
2023/06/06 17:30:05;;;;;;;;;;;;;;;;;;2203643;66;2742;-23
2023/06/06 17:32:35;;;;;;;;;;;;;;;;;;2198445;59;3135;-23
2023/06/06 17:35:06;;;;;;;;;;;;;;;;;;2203693;59;2033;-23
2023/06/06 17:37:36;;;;;;;;;;;;;;;;;;2200233;59;2149;-23